AirNav   ATP
 
 1054 users online  

F86 Caldwell Parish Airport
Columbia, Louisiana, USA

GOING TO COLUMBIA?


FAA INFORMATION EFFECTIVE 04 JANUARY 2018

Location

FAA Identifier: F86
Lat/Long: 32-07-19.8000N / 092-03-16.2000W
32-07.330000N / 092-03.270000W
32.1221667 / -92.0545000
(estimated)
Elevation: 66.9 ft. / 20.4 m (surveyed)
Variation: 04E (1985)
From city: 2 miles NE of COLUMBIA, LA
Time zone: UTC -6 (UTC -5 during Daylight Saving Time)
Zip code: 71418

Airport Operations

Airport use: Open to the public
Activation date: 04/1964
Control tower: no
ARTCC: FORT WORTH CENTER
FSS: DE RIDDER FLIGHT SERVICE STATION
NOTAMs facility: DRI (NOTAM-D service available)
Attendance: UNATNDD
Wind indicator: lighted
Segmented circle: yes
Lights: MIRL& REIL RY 01/19, PRESET LOW INTST DUSK-DAWN; TO INCR INTST ACTVT - CTAF.
Beacon: white-green (lighted land airport)
Operates sunset to sunrise.

Airport Communications

CTAF: 122.9

Nearby radio navigation aids

VOR radial/distance  VOR name  Freq  Var
MLUr179/23.7MONROE VORTAC117.2003E
SWBr072/32.9SAWMILL VOR/DME113.7502E

 
NDB name  Hdg/Dist  Freq  Var  ID
BASTROP190/38.932903EBQP -... --.- .--.
RUSTON134/39.836803EROQ .-. --- --.-

Airport Services

Parking: tiedowns
Airframe service: NONE
Powerplant service: NONE
Bottled oxygen: NONE
Bulk oxygen: NONE

Runway Information

Runway 1/19

Dimensions: 3501 x 75 ft. / 1067 x 23 m
Surface: asphalt, in fair condition
GRASS GROWING THROUGH CRACKS.
Weight bearing capacity: 
Single wheel: 6.0
Runway edge lights: medium intensity
RUNWAY 1  RUNWAY 19
Latitude: 32-07.047528N32-07.611090N
Longitude: 092-03.344247W092-03.196722W
Elevation: 66.8 ft.63.0 ft.
Gradient: 0.1%0.1%
Traffic pattern: leftleft
Runway heading: 009 magnetic, 013 true189 magnetic, 193 true
Markings: basic, in fair conditionbasic, in fair condition
Visual slope indicator: 2-light PAPI on left (3.50 degrees glide path)2-light PAPI on left (3.00 degrees glide path)
Runway end identifier lights: yesyes
Touchdown point: yes, no lightsyes, no lights
Obstructions: 81 ft. trees, 1580 ft. from runway, 151 ft. right of centerline, 17:1 slope to clear
4 FT FENCE 197 FT FM END OF RY.
none

Airport Ownership and Management from official FAA records

Ownership: Publicly-owned
Owner: CALDWELL PARISH POLICE JURY
PO BOX 1737
COLUMBIA, LA 71418
Phone 318-649-2681
Manager: REED KEAHEY
PO BOX 1139
COLUMBIA, LA 71418
Phone (318) 331-3888

Airport Operational Statistics

Aircraft based on the field: 10
Single engine airplanes: 10
    
Aircraft operations: avg 38/day *
73% local general aviation
27% transient general aviation
* for 12-month period ending 16 November 2016

Additional Remarks

BIRDS IN VICINITY OF AIRPORT.
FOREIGN OBJECTS & DEBRIS PRESENT ON APRON. GRASS GROWING THROUGH CRACKS.

Instrument Procedures

There are no published instrument procedures at F86.

Some nearby airports with instrument procedures:

KMLU - Monroe Regional Airport (23 nm N)
M79 - John H Hooks Jr Memorial Airport (26 nm NE)
0R5 - David G Joyce Airport (32 nm W)
F88 - Jonesboro Airport (35 nm W)
KRSN - Ruston Regional Airport (36 nm NW)
 
Loc | Ops | Rwys | IFR | FBO | Links
Com | Nav | Svcs | Stats | Notes


 
Area around F86 (Caldwell Parish Airport)
 
Road maps at: MapQuest Bing Google
 
Aerial photo
WARNING: Photo may not be current or correct
Aerial photo of F86 (Caldwell Parish Airport)
Photo by Bob Burns
Photo taken 02-Jan-2011
looking southeast.

Do you have a better or more recent aerial photo of Caldwell Parish Airport that you would like to share? If so, please send us your photo.

 
Sectional chart

 
Airport distance calculator
Flying to Caldwell Parish Airport? Find the distance to fly.

From to F86

Sunrise and sunset
Times for 20-Jan-2018
 Local
(UTC-6)
 Zulu
(UTC)
Morning civil twilight06:4312:43
Sunrise07:0913:09
Sunset17:3023:30
Evening civil twilight17:5623:56

Current date and time
Zulu (UTC)  20-Jan-2018 18:04:58
Local (UTC-6)  20-Jan-2018 12:04:58
 
METAR
KMLU 
24nm N 
201753Z 17007KT 10SM BKN018 OVC045 15/09 A3017 RMK AO2 SLP216 60001 T01500094 10156 20078 58007
KRSN 
36nm NW 
201755Z AUTO 18009KT 10SM BKN016 BKN035 OVC050 18/11 A3018 RMK AO2 T01760109 10176 20080
KBQP 
39nm N 
201755Z AUTO 18007G15KT 10SM SCT021 BKN027 OVC045 14/08 A3017 RMK AO2 T01440078 10146 20070
KESF 
45nm S 
201753Z AUTO 15003KT 7SM -RA FEW024 BKN036 OVC046 13/13 A3018 RMK AO2 RAB1655 SLP218 P0012 60023 T01330128 10133 20050 58003
TAF
KMLU 
24nm N 
201729Z 2018/2118 16006KT P6SM VCSH FEW030 OVC060 FM201900 17009G15KT P6SM VCSH OVC020 FM210000 18006KT P6SM OVC015 FM210300 16006KT 5SM BR OVC007 FM211400 16006KT 5SM BR OVC004
NOTAMs
Click for the latest NOTAMs
NOTAMs are issued by the DoD/FAA and will open in a separate window not controlled by AirNav.

 

 
 

Would you like to see your business listed on this page?

 If your business provides an interesting product or service to pilots, flight crews, aircraft, or users of the Caldwell Parish Airport, you should consider listing it here.  To start the listing process, click on the button below
 
Add a business
 

Other Pages about Caldwell Parish Airport

Update a link
 
Copyright © AirNav, LLC. All rights reserved. Privacy Policy  Contact